createdAt,value
2023-03-16T00:00:19.149Z,14.86
2023-03-16T00:02:50.388Z,14.86
2023-03-16T00:05:21.781Z,14.86
2023-03-16T00:07:53.022Z,14.88
2023-03-16T00:10:27.700Z,14.88
2023-03-16T00:12:59.921Z,14.89
2023-03-16T00:15:31.436Z,14.89
2023-03-16T00:18:02.808Z,14.89
2023-03-16T00:20:34.294Z,14.89
2023-03-16T00:23:05.825Z,14.89
2023-03-16T00:25:37.364Z,14.90
2023-03-16T00:28:08.558Z,14.91
2023-03-16T00:30:39.757Z,14.91
2023-03-16T00:33:12.378Z,14.92
2023-03-16T00:35:50.511Z,14.92
2023-03-16T00:38:22.608Z,14.93
2023-03-16T00:40:53.746Z,14.90
2023-03-16T00:43:33.687Z,14.70
2023-03-16T00:46:09.910Z,14.36
2023-03-16T00:48:47.691Z,14.22
2023-03-16T00:51:26.265Z,14.20
2023-03-16T00:53:58.351Z,14.23
2023-03-16T00:56:29.687Z,14.27
2023-03-16T00:59:01.045Z,14.29
2023-03-16T01:01:32.887Z,14.30
2023-03-16T01:04:04.277Z,14.30
2023-03-16T01:06:39.800Z,14.29
2023-03-16T01:09:12.694Z,14.26
2023-03-16T01:11:45.209Z,14.24
2023-03-16T01:14:16.592Z,14.22
2023-03-16T01:16:52.046Z,14.20
2023-03-16T01:19:24.022Z,14.16
2023-03-16T01:21:55.147Z,14.13
2023-03-16T01:24:26.391Z,14.13
2023-03-16T01:26:57.721Z,14.10
2023-03-16T01:29:30.045Z,14.08
2023-03-16T01:32:04.401Z,14.06
2023-03-16T01:34:36.304Z,14.01
2023-03-16T01:37:09.296Z,13.99
2023-03-16T01:39:46.104Z,13.96
2023-03-16T01:42:18.209Z,13.94
2023-03-16T01:44:57.959Z,13.92
2023-03-16T01:47:38.237Z,13.90
2023-03-16T01:50:12.164Z,13.87
2023-03-16T01:52:44.526Z,13.86
2023-03-16T01:55:16.021Z,13.84
2023-03-16T01:57:49.496Z,13.83
2023-03-16T02:00:24.660Z,13.80
2023-03-16T02:03:14.075Z,13.77
2023-03-16T02:05:55.100Z,13.73
2023-03-16T02:08:28.403Z,13.71
2023-03-16T02:11:01.009Z,13.66
2023-03-16T02:13:44.036Z,13.60
2023-03-16T02:16:19.647Z,13.59
2023-03-16T02:18:53.807Z,13.59
2023-03-16T02:21:34.322Z,13.59
2023-03-16T02:24:06.968Z,13.58
2023-03-16T02:26:47.812Z,13.56
2023-03-16T02:29:46.591Z,13.55
2023-03-16T02:32:19.169Z,13.53
2023-03-16T02:34:50.729Z,13.52
2023-03-16T02:37:22.551Z,13.50
2023-03-16T02:39:53.938Z,13.49
2023-03-16T02:42:27.914Z,13.49
2023-03-16T02:45:02.254Z,13.49
2023-03-16T02:47:41.813Z,13.48
2023-03-16T02:50:14.263Z,13.46
2023-03-16T02:52:45.721Z,13.44
2023-03-16T02:55:16.968Z,13.41
2023-03-16T02:57:49.962Z,13.39
2023-03-16T03:00:23.925Z,13.37
2023-03-16T03:02:55.551Z,13.37
2023-03-16T03:05:27.403Z,13.38
2023-03-16T03:07:58.830Z,13.39
2023-03-16T03:10:31.135Z,13.42
2023-03-16T03:13:02.978Z,13.43
2023-03-16T03:15:34.611Z,13.44
2023-03-16T03:18:11.100Z,13.44
2023-03-16T03:20:42.442Z,13.44
2023-03-16T03:23:15.479Z,13.44
2023-03-16T03:25:48.084Z,13.45
2023-03-16T03:28:19.757Z,13.45
2023-03-16T03:30:51.615Z,13.46
2023-03-16T03:33:23.166Z,13.47
2023-03-16T03:35:59.225Z,13.48
2023-03-16T03:38:32.396Z,13.48
2023-03-16T03:41:04.119Z,13.48
2023-03-16T03:43:37.268Z,13.49
2023-03-16T03:46:09.566Z,13.50
2023-03-16T03:48:41.176Z,13.50
2023-03-16T03:51:12.702Z,13.51
2023-03-16T03:53:57.507Z,13.50
2023-03-16T03:56:43.283Z,13.49
2023-03-16T03:59:18.420Z,13.49
2023-03-16T04:02:14.133Z,13.49
2023-03-16T04:04:49.569Z,13.48
2023-03-16T04:07:20.768Z,13.47
2023-03-16T04:09:52.886Z,13.47
2023-03-16T04:12:44.351Z,13.46
2023-03-16T04:15:16.900Z,13.46
2023-03-16T04:18:07.862Z,13.46
2023-03-16T04:20:39.715Z,13.46
2023-03-16T04:23:11.586Z,13.45
2023-03-16T04:25:45.425Z,13.46
2023-03-16T04:28:19.020Z,13.45
2023-03-16T04:30:54.429Z,13.44
2023-03-16T04:33:40.922Z,13.44
2023-03-16T04:36:12.809Z,13.43
2023-03-16T04:38:44.629Z,13.41
2023-03-16T04:41:16.431Z,13.39
2023-03-16T04:43:54.040Z,13.37
2023-03-16T04:46:29.558Z,13.36
2023-03-16T04:49:01.746Z,13.35
2023-03-16T04:51:33.711Z,13.36
2023-03-16T04:54:10.105Z,13.37
2023-03-16T04:56:43.934Z,13.37
2023-03-16T04:59:35.633Z,13.37
2023-03-16T05:02:27.393Z,13.36
2023-03-16T05:04:59.458Z,13.34
2023-03-16T05:07:30.620Z,13.32
2023-03-16T05:10:02.602Z,13.30
2023-03-16T05:12:34.280Z,13.29
2023-03-16T05:15:10.319Z,13.28
2023-03-16T05:17:44.939Z,13.27
2023-03-16T05:20:17.695Z,13.26
2023-03-16T05:22:55.009Z,13.25
2023-03-16T05:25:39.665Z,13.23
2023-03-16T05:28:12.761Z,13.22
2023-03-16T05:30:48.947Z,13.21
2023-03-16T05:33:24.882Z,13.21
2023-03-16T05:36:03.267Z,13.20
2023-03-16T05:38:36.966Z,13.19
2023-03-16T05:41:09.375Z,13.17
2023-03-16T05:44:07.743Z,13.17
2023-03-16T05:46:57.281Z,13.18
2023-03-16T05:49:28.980Z,13.16
2023-03-16T05:52:01.143Z,13.17
2023-03-16T05:54:34.514Z,13.26
2023-03-16T05:57:07.175Z,13.47
2023-03-16T05:59:39.279Z,13.70
2023-03-16T06:02:11.870Z,13.84
2023-03-16T06:04:43.473Z,13.90
2023-03-16T06:07:15.386Z,13.92
2023-03-16T06:09:48.260Z,13.96
2023-03-16T06:12:20.805Z,14.13
2023-03-16T06:14:52.503Z,14.32
2023-03-16T06:17:23.665Z,14.47
2023-03-16T06:19:55.969Z,14.59
2023-03-16T06:22:30.352Z,14.80
2023-03-16T06:25:02.304Z,14.99
2023-03-16T06:27:33.733Z,15.19
2023-03-16T06:30:17.456Z,15.32
2023-03-16T06:32:49.055Z,15.36
2023-03-16T06:35:20.679Z,15.39
2023-03-16T06:38:04.273Z,15.41
2023-03-16T06:41:05.597Z,15.40
2023-03-16T06:43:38.961Z,15.44
2023-03-16T06:46:10.472Z,15.48
2023-03-16T06:48:42.645Z,15.47
2023-03-16T06:51:16.747Z,15.44
2023-03-16T06:53:49.381Z,15.43
2023-03-16T06:56:20.997Z,15.47
2023-03-16T06:58:52.600Z,15.52
2023-03-16T07:01:24.374Z,15.54
2023-03-16T07:03:56.284Z,15.56
2023-03-16T07:06:31.643Z,15.57
2023-03-16T07:09:05.305Z,15.57
2023-03-16T07:11:37.218Z,15.57
2023-03-16T07:14:08.790Z,15.61
2023-03-16T07:16:40.950Z,15.64
2023-03-16T07:19:13.552Z,15.67
2023-03-16T07:21:45.704Z,15.70
2023-03-16T07:24:19.760Z,15.74
2023-03-16T07:26:51.230Z,15.77
2023-03-16T07:29:29.815Z,15.77
2023-03-16T07:32:01.604Z,15.74
2023-03-16T07:34:38.370Z,15.74
2023-03-16T07:37:10.040Z,15.76
2023-03-16T07:39:42.245Z,15.79
2023-03-16T07:42:18.968Z,15.82
2023-03-16T07:45:19.833Z,15.88
2023-03-16T07:47:51.257Z,15.92
2023-03-16T07:50:30.788Z,15.98
2023-03-16T07:53:02.552Z,16.04
2023-03-16T07:55:36.690Z,16.10
2023-03-16T07:58:08.849Z,16.17
2023-03-16T08:00:42.745Z,16.25
2023-03-16T08:03:14.402Z,16.35
2023-03-16T08:05:45.738Z,16.44
2023-03-16T08:08:19.325Z,16.52
2023-03-16T08:10:54.150Z,16.60
2023-03-16T08:13:32.455Z,16.71
2023-03-16T08:16:03.720Z,16.82
2023-03-16T08:18:39.414Z,16.92
2023-03-16T08:21:12.901Z,17.04
2023-03-16T08:23:49.667Z,17.17
2023-03-16T08:26:22.585Z,17.29
2023-03-16T08:29:03.280Z,17.40
2023-03-16T08:31:38.281Z,17.46
2023-03-16T08:34:29.006Z,17.51
2023-03-16T08:37:02.193Z,17.57
2023-03-16T08:39:33.886Z,17.64
2023-03-16T08:42:07.798Z,17.69
2023-03-16T08:44:50.937Z,17.75
2023-03-16T08:47:23.193Z,17.80
2023-03-16T08:49:54.888Z,17.85
2023-03-16T08:52:26.360Z,17.88
2023-03-16T08:55:03.330Z,17.90
2023-03-16T08:57:37.666Z,17.93
2023-03-16T09:00:13.588Z,17.99
2023-03-16T09:02:45.924Z,18.09
2023-03-16T09:05:18.523Z,18.20
2023-03-16T09:07:50.060Z,18.32
2023-03-16T09:10:23.367Z,18.44
2023-03-16T09:12:55.047Z,18.52
2023-03-16T09:15:26.864Z,18.59
2023-03-16T09:18:00.880Z,18.65
2023-03-16T09:20:33.300Z,18.73
2023-03-16T09:23:05.205Z,18.84
2023-03-16T09:25:42.505Z,18.98
2023-03-16T09:28:18.358Z,19.36
2023-03-16T09:30:51.649Z,20.20
2023-03-16T09:33:24.420Z,21.19
2023-03-16T09:35:56.254Z,22.22
2023-03-16T09:38:27.833Z,23.19
2023-03-16T09:41:09.010Z,23.94
2023-03-16T09:43:56.818Z,24.41
2023-03-16T09:46:34.971Z,24.74
2023-03-16T09:49:06.381Z,24.97
2023-03-16T09:51:45.290Z,25.07
2023-03-16T09:54:28.759Z,25.04
2023-03-16T09:57:01.824Z,24.84
2023-03-16T09:59:33.553Z,24.59
2023-03-16T10:02:26.670Z,24.31
2023-03-16T10:05:07.225Z,24.00
2023-03-16T10:07:48.964Z,23.77
2023-03-16T10:10:30.477Z,23.53
2023-03-16T10:13:04.060Z,23.28
2023-03-16T10:15:39.914Z,23.09
2023-03-16T10:18:18.772Z,22.93
2023-03-16T10:20:50.760Z,22.71
2023-03-16T10:23:25.192Z,22.39
2023-03-16T10:25:58.032Z,22.14
2023-03-16T10:28:32.116Z,21.97
2023-03-16T10:31:04.848Z,21.88
2023-03-16T10:33:38.655Z,21.74
2023-03-16T10:36:20.215Z,21.60
2023-03-16T10:38:55.604Z,21.55
2023-03-16T10:41:32.847Z,21.51
2023-03-16T10:44:12.038Z,21.43
2023-03-16T10:46:48.731Z,21.43
2023-03-16T10:49:28.706Z,21.37
2023-03-16T10:52:01.912Z,21.29
2023-03-16T10:54:35.634Z,21.21
2023-03-16T10:57:23.122Z,21.22
2023-03-16T10:59:56.820Z,21.17
2023-03-16T11:02:34.703Z,21.13
2023-03-16T11:05:21.511Z,21.13
2023-03-16T11:07:58.761Z,21.10
2023-03-16T11:10:36.153Z,21.06
2023-03-16T11:13:17.687Z,21.09
2023-03-16T11:15:56.590Z,21.10
2023-03-16T11:18:31.778Z,21.07
2023-03-16T11:21:09.770Z,21.06
2023-03-16T11:23:48.517Z,21.00
2023-03-16T11:26:25.870Z,20.96
2023-03-16T11:29:02.442Z,20.97
2023-03-16T11:31:43.493Z,20.93
2023-03-16T11:34:19.464Z,20.73
2023-03-16T11:37:00.008Z,20.55
2023-03-16T11:39:47.568Z,20.49
2023-03-16T11:42:29.253Z,20.45
2023-03-16T11:45:08.443Z,20.43
2023-03-16T11:48:05.288Z,20.54
2023-03-16T11:50:45.334Z,20.55
2023-03-16T11:53:28.640Z,20.61
2023-03-16T11:56:13.036Z,20.65
2023-03-16T11:59:02.102Z,20.68
2023-03-16T12:01:58.241Z,20.71
2023-03-16T12:04:46.574Z,20.74
2023-03-16T12:07:33.733Z,20.55
2023-03-16T12:10:23.694Z,20.18
2023-03-16T12:13:10.629Z,19.88
2023-03-16T12:15:48.088Z,19.73
2023-03-16T12:18:23.533Z,19.63
2023-03-16T12:20:59.068Z,19.37
2023-03-16T12:23:34.781Z,19.07
2023-03-16T12:26:06.378Z,18.87
2023-03-16T12:28:38.481Z,18.73
2023-03-16T12:31:13.458Z,18.47
2023-03-16T12:33:57.803Z,18.27
2023-03-16T12:36:46.742Z,18.16
2023-03-16T12:39:26.180Z,18.10
2023-03-16T12:42:12.388Z,17.98
2023-03-16T12:44:51.126Z,17.82
2023-03-16T12:47:33.895Z,17.67
2023-03-16T12:50:11.851Z,17.61
2023-03-16T12:52:47.972Z,17.63
2023-03-16T12:55:21.583Z,17.55
2023-03-16T12:58:01.615Z,17.46
2023-03-16T13:00:41.276Z,17.41
2023-03-16T13:03:21.287Z,17.40
2023-03-16T13:05:56.699Z,17.44
2023-03-16T13:08:29.031Z,17.48
2023-03-16T13:11:05.885Z,17.49
2023-03-16T13:13:49.794Z,17.42
2023-03-16T13:16:29.562Z,17.35
2023-03-16T13:19:01.031Z,17.33
2023-03-16T13:21:41.148Z,17.35
2023-03-16T13:24:29.772Z,17.28
2023-03-16T13:27:06.325Z,17.25
2023-03-16T13:29:39.132Z,17.19
2023-03-16T13:32:20.517Z,17.11
2023-03-16T13:34:53.861Z,17.01
2023-03-16T13:37:26.626Z,16.98
2023-03-16T13:39:59.913Z,17.00
2023-03-16T13:42:33.266Z,17.04
2023-03-16T13:45:15.362Z,17.07
2023-03-16T13:47:49.734Z,17.01
2023-03-16T13:50:21.641Z,17.02
2023-03-16T13:53:04.309Z,16.99
2023-03-16T13:55:38.599Z,16.94
2023-03-16T13:58:23.627Z,16.85
2023-03-16T14:00:58.618Z,16.65
2023-03-16T14:03:37.212Z,16.60
2023-03-16T14:06:22.550Z,16.65
2023-03-16T14:08:58.421Z,16.68
2023-03-16T14:11:30.393Z,16.69
2023-03-16T14:14:02.717Z,16.71
2023-03-16T14:16:34.111Z,16.72
2023-03-16T14:19:09.433Z,16.73
2023-03-16T14:21:45.661Z,16.64
2023-03-16T14:24:29.785Z,16.57
2023-03-16T14:27:10.549Z,16.55
2023-03-16T14:29:45.571Z,16.57
2023-03-16T14:32:28.540Z,16.50
2023-03-16T14:35:16.189Z,16.43
2023-03-16T14:37:49.396Z,16.45
2023-03-16T14:40:29.863Z,16.44
2023-03-16T14:43:03.950Z,16.39
2023-03-16T14:45:38.051Z,16.37
2023-03-16T14:48:17.104Z,16.40
2023-03-16T14:50:49.339Z,16.40
2023-03-16T14:53:20.476Z,16.40
2023-03-16T14:55:52.255Z,16.40
2023-03-16T14:58:23.734Z,16.42
2023-03-16T15:00:55.609Z,16.38
2023-03-16T15:03:34.410Z,16.34
2023-03-16T15:06:07.854Z,16.35
2023-03-16T15:08:44.506Z,16.35
2023-03-16T15:11:21.437Z,16.35
2023-03-16T15:14:14.617Z,16.30
2023-03-16T15:16:46.571Z,16.31
2023-03-16T15:19:17.615Z,16.23
2023-03-16T15:21:49.380Z,16.18
2023-03-16T15:24:20.405Z,16.13
2023-03-16T15:26:53.576Z,16.09
2023-03-16T15:29:25.062Z,16.01
2023-03-16T15:31:56.279Z,15.92
2023-03-16T15:34:27.849Z,15.85
2023-03-16T15:36:59.032Z,15.80
2023-03-16T15:39:30.387Z,15.75
2023-03-16T15:42:01.424Z,15.72
2023-03-16T15:44:32.423Z,15.69
2023-03-16T15:47:04.596Z,15.70
2023-03-16T15:49:46.669Z,15.68
2023-03-16T15:52:28.289Z,15.65
2023-03-16T15:55:04.696Z,15.65
2023-03-16T15:57:36.865Z,15.63
2023-03-16T16:00:14.580Z,15.63
2023-03-16T16:02:45.878Z,15.59
2023-03-16T16:05:17.426Z,15.58
2023-03-16T16:07:48.786Z,15.62
2023-03-16T16:10:20.912Z,15.63
2023-03-16T16:12:54.841Z,15.63
2023-03-16T16:15:29.724Z,15.65
2023-03-16T16:18:20.291Z,15.66
2023-03-16T16:20:52.636Z,15.76
2023-03-16T16:23:25.248Z,15.84
2023-03-16T16:25:59.567Z,15.79
2023-03-16T16:28:33.843Z,15.67
2023-03-16T16:31:13.234Z,15.58
2023-03-16T16:33:44.516Z,15.50
2023-03-16T16:36:20.314Z,15.45
2023-03-16T16:38:54.873Z,15.39
2023-03-16T16:41:29.425Z,15.32
2023-03-16T16:44:05.573Z,15.28
2023-03-16T16:46:41.554Z,15.26
2023-03-16T16:49:19.621Z,15.28
2023-03-16T16:51:51.509Z,15.37
2023-03-16T16:54:24.582Z,15.44
2023-03-16T16:56:57.504Z,15.45
2023-03-16T16:59:33.240Z,15.45
2023-03-16T17:02:19.341Z,15.38
2023-03-16T17:04:51.893Z,15.31
2023-03-16T17:07:23.042Z,15.25
2023-03-16T17:09:54.269Z,15.21
2023-03-16T17:12:26.294Z,15.19
2023-03-16T17:14:57.471Z,15.16
2023-03-16T17:17:29.256Z,15.16
2023-03-16T17:20:01.625Z,15.12
2023-03-16T17:22:33.181Z,15.09
2023-03-16T17:25:04.826Z,15.06
2023-03-16T17:27:38.149Z,15.04
2023-03-16T17:30:20.853Z,15.03
2023-03-16T17:32:53.376Z,15.01
2023-03-16T17:35:25.385Z,14.99
2023-03-16T17:37:57.048Z,14.98
2023-03-16T17:40:28.971Z,15.01
2023-03-16T17:43:00.758Z,15.09
2023-03-16T17:45:32.045Z,15.16
2023-03-16T17:48:05.405Z,15.22
2023-03-16T17:50:36.829Z,15.27
2023-03-16T17:53:08.363Z,15.32
2023-03-16T17:55:40.346Z,15.37
2023-03-16T17:58:28.356Z,15.41
2023-03-16T18:01:00.216Z,15.43
2023-03-16T18:03:31.609Z,15.46
2023-03-16T18:06:03.451Z,15.47
2023-03-16T18:08:36.092Z,15.48
2023-03-16T18:11:16.719Z,15.48
2023-03-16T18:13:49.731Z,15.48
2023-03-16T18:16:28.099Z,15.47
2023-03-16T18:19:05.802Z,15.47
2023-03-16T18:21:37.654Z,15.48
2023-03-16T18:24:15.987Z,15.45
2023-03-16T18:26:47.537Z,15.43
2023-03-16T18:29:20.670Z,15.41
2023-03-16T18:31:55.349Z,15.40
2023-03-16T18:34:29.412Z,15.39
2023-03-16T18:37:06.352Z,15.38
2023-03-16T18:39:37.576Z,15.36
2023-03-16T18:42:12.189Z,15.35
2023-03-16T18:44:43.860Z,15.32
2023-03-16T18:47:20.778Z,15.31
2023-03-16T18:49:54.294Z,15.29
2023-03-16T18:52:27.992Z,15.27
2023-03-16T18:54:59.550Z,15.25
2023-03-16T18:57:32.549Z,15.22
2023-03-16T19:00:03.713Z,15.20
2023-03-16T19:02:39.000Z,15.18
2023-03-16T19:05:14.369Z,15.16
2023-03-16T19:07:47.380Z,15.15
2023-03-16T19:10:25.890Z,15.13
2023-03-16T19:12:57.711Z,15.10
2023-03-16T19:15:32.846Z,15.08
2023-03-16T19:18:04.695Z,15.06
2023-03-16T19:20:36.721Z,15.02
2023-03-16T19:23:15.546Z,15.01
2023-03-16T19:25:47.532Z,14.98
2023-03-16T19:28:23.737Z,14.96
2023-03-16T19:30:54.940Z,14.93
2023-03-16T19:33:28.539Z,14.92
2023-03-16T19:36:00.107Z,14.90
2023-03-16T19:38:31.771Z,14.88
2023-03-16T19:41:03.271Z,14.87
2023-03-16T19:43:34.316Z,14.87
2023-03-16T19:46:06.016Z,14.87
2023-03-16T19:48:37.402Z,14.86
2023-03-16T19:51:12.383Z,14.85
2023-03-16T19:53:44.447Z,14.83
2023-03-16T19:56:25.564Z,14.81
2023-03-16T19:58:57.757Z,14.80
2023-03-16T20:01:33.011Z,14.78
2023-03-16T20:04:05.328Z,14.76
2023-03-16T20:06:36.952Z,14.74
2023-03-16T20:09:08.329Z,14.74
2023-03-16T20:11:39.724Z,14.72
2023-03-16T20:14:22.443Z,14.69
2023-03-16T20:16:54.228Z,14.68
2023-03-16T20:19:26.251Z,14.67
2023-03-16T20:21:57.605Z,14.67
2023-03-16T20:24:29.770Z,14.64
2023-03-16T20:27:01.873Z,14.63
2023-03-16T20:29:34.506Z,14.62
2023-03-16T20:32:08.229Z,14.60
2023-03-16T20:34:39.470Z,14.59
2023-03-16T20:37:25.057Z,14.57
2023-03-16T20:39:58.333Z,14.57
2023-03-16T20:42:32.959Z,14.56
2023-03-16T20:45:09.923Z,14.56
2023-03-16T20:47:42.115Z,14.55
2023-03-16T20:50:20.248Z,14.54
2023-03-16T20:52:51.833Z,14.53
2023-03-16T20:55:25.204Z,14.51
2023-03-16T20:57:57.667Z,14.50
2023-03-16T21:00:33.397Z,14.51
2023-03-16T21:03:07.830Z,14.51
2023-03-16T21:05:38.939Z,14.50
2023-03-16T21:08:10.276Z,14.47
2023-03-16T21:10:42.550Z,14.46
2023-03-16T21:13:21.700Z,14.44
2023-03-16T21:15:53.321Z,14.43
2023-03-16T21:18:24.995Z,14.42
2023-03-16T21:20:58.281Z,14.41
2023-03-16T21:23:29.792Z,14.40
2023-03-16T21:26:04.036Z,14.40
2023-03-16T21:28:37.313Z,14.40
2023-03-16T21:31:08.723Z,14.39
2023-03-16T21:33:41.973Z,14.38
2023-03-16T21:36:18.261Z,14.38
2023-03-16T21:38:50.818Z,14.37
2023-03-16T21:41:22.786Z,14.35
2023-03-16T21:43:54.544Z,14.34
2023-03-16T21:46:26.707Z,14.34
2023-03-16T21:48:58.436Z,14.33
2023-03-16T21:51:32.012Z,14.31
2023-03-16T21:54:03.208Z,14.30
2023-03-16T21:56:34.370Z,14.27
2023-03-16T21:59:05.929Z,14.23
2023-03-16T22:01:50.960Z,14.20
2023-03-16T22:04:31.768Z,14.17
2023-03-16T22:07:02.765Z,14.13
2023-03-16T22:09:34.297Z,14.09
2023-03-16T22:12:05.912Z,14.06
2023-03-16T22:14:36.843Z,14.04
2023-03-16T22:17:09.376Z,14.01
2023-03-16T22:19:40.491Z,13.98
2023-03-16T22:22:17.514Z,13.96
2023-03-16T22:24:48.693Z,13.94
2023-03-16T22:27:26.160Z,13.92
2023-03-16T22:29:57.856Z,13.90
2023-03-16T22:32:29.413Z,13.89
2023-03-16T22:35:00.661Z,13.88
2023-03-16T22:37:31.955Z,13.87
2023-03-16T22:40:04.965Z,13.88
2023-03-16T22:42:39.331Z,13.88
2023-03-16T22:45:20.030Z,13.89
2023-03-16T22:47:52.061Z,13.89
2023-03-16T22:50:25.243Z,13.90
2023-03-16T22:52:59.888Z,13.89
2023-03-16T22:55:34.606Z,13.87
2023-03-16T22:58:12.626Z,13.84
2023-03-16T23:00:44.858Z,13.82
2023-03-16T23:03:19.967Z,13.83
2023-03-16T23:05:51.768Z,13.82
2023-03-16T23:08:26.583Z,13.82
2023-03-16T23:10:57.822Z,13.83
2023-03-16T23:13:29.668Z,13.83
2023-03-16T23:16:01.006Z,13.85
2023-03-16T23:18:32.382Z,13.85
2023-03-16T23:21:03.808Z,13.84
2023-03-16T23:23:35.375Z,13.83
2023-03-16T23:26:17.940Z,13.82
2023-03-16T23:28:50.690Z,13.81
2023-03-16T23:31:25.174Z,13.80
2023-03-16T23:33:57.111Z,13.79
2023-03-16T23:36:28.792Z,13.77
2023-03-16T23:39:00.130Z,13.74
2023-03-16T23:41:31.889Z,13.70
2023-03-16T23:44:05.872Z,13.68
2023-03-16T23:46:37.866Z,13.66
2023-03-16T23:49:13.515Z,13.64
2023-03-16T23:51:47.134Z,13.62
2023-03-16T23:54:22.132Z,13.60
2023-03-16T23:56:55.789Z,13.57
2023-03-16T23:59:27.881Z,13.55
